Time;durP1;ratioP1;P1;durP2;ratioP2;P2;SDS_P1;SDS_P2;PMS_P1;PMS_P2;Temp;Humidity;BMP_temperature;BMP_pressure;BME280_temperature;BME280_humidity;BME280_pressure;Samples;Min_cycle;Max_cycle;Signal;HPM_P1;HPM_P2
2021/10/31 00:02:18;;;;;;;;;0.00;0.00;;;;;12.19;73.20;100226.53;5084807;28;48529;-86
2021/10/31 00:04:43;;;;;;;;;0.00;0.00;;;;;12.64;73.11;100299.31;5084169;28;45271;-87
2021/10/31 00:07:09;;;;;;;;;0.00;0.00;;;;;12.91;73.06;100344.41;5084514;28;45511;-87
2021/10/31 00:09:34;;;;;;;;;0.00;0.00;;;;;12.87;73.30;100338.34;5065701;28;45340;-86
2021/10/31 00:12:00;;;;;;;;;0.00;0.00;;;;;12.82;73.16;100328.78;5067110;28;47536;-86
2021/10/31 00:14:26;;;;;;;;;0.75;0.00;;;;;12.85;73.39;100324.41;5067247;28;45343;-86
2021/10/31 00:16:58;;;;;;;;;1.00;0.00;;;;;12.80;73.40;100326.19;5067067;28;45451;-86
2021/10/31 00:19:28;;;;;;;;;0.00;0.00;;;;;12.54;73.40;100290.69;5064774;28;45355;-86
2021/10/31 00:21:54;;;;;;;;;0.00;0.00;;;;;12.36;73.41;100269.06;5083645;28;46310;-86
2021/10/31 00:24:19;;;;;;;;;0.00;0.00;;;;;12.83;73.53;100347.06;5083495;28;45235;-86
2021/10/31 00:26:45;;;;;;;;;0.00;0.00;;;;;12.64;73.48;100312.38;5083763;28;45481;-86
2021/10/31 00:29:10;;;;;;;;;0.00;0.00;;;;;12.86;73.25;100346.19;5081115;28;45868;-86
2021/10/31 00:31:35;;;;;;;;;0.00;0.00;;;;;12.66;73.52;100316.72;5083186;28;45432;-86
2021/10/31 00:34:02;;;;;;;;;0.00;0.00;;;;;12.83;73.37;100336.63;5067765;28;45746;-85
2021/10/31 00:36:27;;;;;;;;;0.00;0.00;;;;;12.68;73.76;100314.06;5086564;28;45266;-86
2021/10/31 00:39:00;;;;;;;;;1.00;0.00;;;;;12.60;73.57;100310.66;5085369;28;45234;-86
2021/10/31 00:41:25;;;;;;;;;0.00;0.00;;;;;12.74;73.47;100331.47;5065485;28;47146;-86
2021/10/31 00:43:51;;;;;;;;;0.00;0.00;;;;;12.61;73.55;100312.38;5082947;28;45313;-86
2021/10/31 00:46:16;;;;;;;;;0.00;0.00;;;;;12.66;73.56;100314.13;5083370;28;45579;-86
2021/10/31 00:48:42;;;;;;;;;0.00;0.00;;;;;12.70;73.51;100327.13;5083717;28;45215;-86
2021/10/31 00:51:08;;;;;;;;;0.00;0.00;;;;;12.82;73.77;100361.00;5081732;28;45510;-86
2021/10/31 00:53:44;;;;;;;;;0.75;0.00;;;;;12.70;73.63;100340.19;5082668;28;45218;-86
2021/10/31 00:56:11;;;;;;;;;0.00;0.00;;;;;12.72;73.73;100333.22;5093317;28;45359;-86
2021/10/31 00:58:37;;;;;;;;;0.00;0.00;;;;;12.80;73.66;100341.84;5094608;28;45593;-86
2021/10/31 01:01:03;;;;;;;;;0.00;0.00;;;;;12.55;73.58;100295.03;5075818;28;47645;-86
2021/10/31 01:03:34;;;;;;;;;0.00;0.00;;;;;12.76;73.64;100337.53;5082966;28;45346;-86
2021/10/31 01:06:34;;;;;;;;;0.00;0.00;;;;;12.55;73.56;100300.25;5064804;28;45360;-86
2021/10/31 01:09:32;;;;;;;;;0.00;0.00;;;;;12.78;73.77;100320.97;5064435;28;45255;-86
2021/10/31 01:12:33;;;;;;;;;0.00;0.00;;;;;12.80;74.21;100324.44;5076698;28;46383;-85
2021/10/31 01:15:16;;;;;;;;;0.00;0.00;;;;;12.82;73.84;100324.44;5064068;28;45449;-86
2021/10/31 01:17:51;;;;;;;;;0.00;0.00;;;;;12.83;74.04;100326.16;5085096;28;45343;-86
2021/10/31 01:20:35;;;;;;;;;0.00;0.00;;;;;12.84;73.41;100327.91;5067904;28;45550;-86
2021/10/31 01:23:39;;;;;;;;;0.00;0.00;;;;;12.83;73.20;100326.16;5067574;28;46889;-86
2021/10/31 01:26:42;;;;;;;;;0.00;0.00;;;;;12.84;73.77;100327.03;5095118;28;45367;-86
2021/10/31 01:29:33;;;;;;;;;0.00;0.00;;;;;12.82;73.34;100331.41;5107983;27;44799;-86
2021/10/31 01:32:39;;;;;;;;;1.00;1.00;;;;;12.81;73.69;100317.50;5085541;28;45413;-86
2021/10/31 01:35:30;;;;;;;;;0.00;0.00;;;;;12.82;73.68;100310.50;5094013;28;45240;-86
2021/10/31 01:37:56;;;;;;;;;0.00;0.00;;;;;12.77;73.31;100302.72;5090095;28;45277;-86
2021/10/31 01:40:35;;;;;;;;;0.00;0.00;;;;;12.11;73.26;100197.88;5078124;28;45330;-86
2021/10/31 01:43:30;;;;;;;;;0.00;0.00;;;;;11.74;73.37;100146.78;5070321;28;45170;-86
2021/10/31 01:46:16;;;;;;;;;0.00;0.00;;;;;12.74;73.37;100303.59;5081529;28;45584;-86
2021/10/31 01:48:48;;;;;;;;;0.00;0.00;;;;;12.57;73.59;100276.75;5082712;28;45296;-86
2021/10/31 01:51:23;;;;;;;;;0.00;0.00;;;;;12.44;73.46;100257.69;5082811;28;45260;-86
2021/10/31 01:54:02;;;;;;;;;1.00;0.00;;;;;12.70;73.60;100288.84;5082838;28;45243;-86
2021/10/31 01:56:30;;;;;;;;;0.00;0.00;;;;;12.66;73.41;100290.63;5081021;28;47207;-86
2021/10/31 01:59:03;;;;;;;;;0.00;0.00;;;;;12.70;73.64;100282.72;5081511;28;45758;-86
2021/10/31 02:01:32;;;;;;;;;0.00;0.00;;;;;12.59;73.40;100275.00;5083203;28;45189;-86
2021/10/31 02:04:00;;;;;;;;;0.00;0.00;;;;;12.70;73.44;100290.56;5084111;28;45305;-86
2021/10/31 02:06:29;;;;;;;;;0.00;0.00;;;;;12.22;73.21;100209.09;5086620;28;45551;-86
2021/10/31 02:08:55;;;;;;;;;0.00;0.00;;;;;12.23;73.28;100212.59;5086491;28;45405;-85
2021/10/31 02:11:22;;;;;;;;;0.00;0.00;;;;;12.53;73.33;100258.47;5085162;28;45409;-85
2021/10/31 02:13:52;;;;;;;;;0.00;0.00;;;;;12.67;73.36;100270.56;5086494;28;45322;-85
2021/10/31 02:16:18;;;;;;;;;0.00;0.00;;;;;12.64;73.32;100281.03;5085945;28;46214;-86
2021/10/31 02:18:46;;;;;;;;;0.00;0.00;;;;;12.52;73.33;100255.88;5070089;28;45261;-86
2021/10/31 02:21:16;;;;;;;;;0.00;0.00;;;;;12.56;73.51;100277.63;5088589;28;45433;-85
2021/10/31 02:23:44;;;;;;;;;0.00;0.00;;;;;12.58;73.26;100276.72;5088571;28;45142;-85
2021/10/31 02:26:14;;;;;;;;;0.00;0.00;;;;;12.58;73.13;100279.34;5088070;28;46366;-86
2021/10/31 02:28:53;;;;;;;;;0.00;0.00;;;;;12.26;73.37;100218.66;5085770;28;45535;-85
2021/10/31 02:31:18;;;;;;;;;0.00;0.00;;;;;12.04;73.02;100190.03;5085971;28;45267;-86
2021/10/31 02:33:43;;;;;;;;;0.50;0.00;;;;;12.32;73.18;100246.47;5067509;28;45303;-85
2021/10/31 02:36:09;;;;;;;;;0.00;0.00;;;;;12.12;72.92;100212.63;5067708;28;47045;-86
2021/10/31 02:38:34;;;;;;;;;0.00;0.00;;;;;12.23;73.14;100236.94;5085479;28;45322;-86
2021/10/31 02:41:00;;;;;;;;;0.00;0.00;;;;;12.19;72.93;100229.16;5086649;28;45335;-86
2021/10/31 02:43:25;;;;;;;;;0.00;0.00;;;;;12.26;73.46;100233.44;5086688;28;45405;-86
2021/10/31 02:45:50;;;;;;;;;0.00;0.00;;;;;12.29;73.37;100236.03;5088115;28;45363;-86
2021/10/31 02:48:17;;;;;;;;;0.00;0.00;;;;;12.03;73.52;100192.66;5087810;28;45309;-87
2021/10/31 02:50:45;;;;;;;;;0.00;0.00;;;;;12.33;73.49;100240.34;5086449;28;45314;-86
2021/10/31 02:53:24;;;;;;;;;0.00;0.00;;;;;12.31;73.98;100242.09;5085391;28;45275;-86
2021/10/31 02:56:15;;;;;;;;;0.00;0.00;;;;;12.15;73.62;100212.63;5083008;28;46683;-86
2021/10/31 02:59:18;;;;;;;;;0.00;0.00;;;;;12.31;74.07;100236.03;5066216;28;45337;-86
2021/10/31 03:01:45;;;;;;;;;0.00;0.00;;;;;12.28;73.76;100223.84;5066601;28;45331;-86
2021/10/31 03:04:11;;;;;;;;;0.50;0.00;;;;;12.31;73.74;100233.41;5067402;28;45378;-86
2021/10/31 03:06:37;;;;;;;;;0.00;0.00;;;;;12.22;73.79;100222.16;5068189;28;48429;-85
2021/10/31 03:09:02;;;;;;;;;0.25;0.25;;;;;12.25;74.06;100229.13;5086942;28;45327;-86
2021/10/31 03:11:28;;;;;;;;;1.00;0.00;;;;;12.07;74.10;100197.00;5084242;28;45286;-86
2021/10/31 03:13:53;;;;;;;;;0.00;0.00;;;;;12.03;73.94;100172.66;5085306;28;45497;-86
2021/10/31 03:16:19;;;;;;;;;1.00;1.00;;;;;11.98;73.95;100173.59;5084378;28;45468;-86
2021/10/31 03:18:44;;;;;;;;;0.00;0.00;;;;;11.91;74.18;100167.53;5066644;28;45371;-86
2021/10/31 03:21:10;;;;;;;;;0.00;0.00;;;;;12.10;74.19;100199.59;5085238;28;45341;-85
2021/10/31 03:23:38;;;;;;;;;0.00;0.00;;;;;12.04;74.05;100184.81;5085071;28;45306;-86
2021/10/31 03:26:04;;;;;;;;;0.75;0.00;;;;;12.03;74.29;100184.84;5066459;28;45598;-87
2021/10/31 03:28:29;;;;;;;;;0.00;0.00;;;;;11.97;74.32;100187.50;5085186;28;45294;-86
2021/10/31 03:31:02;;;;;;;;;0.75;0.00;;;;;11.77;73.91;100145.00;5086738;28;45202;-86
2021/10/31 03:33:42;;;;;;;;;0.00;0.00;;;;;12.01;74.32;100184.00;5085413;28;45485;-86
2021/10/31 03:36:07;;;;;;;;;0.00;0.00;;;;;11.36;74.08;100087.00;5066155;28;47180;-87
2021/10/31 03:38:33;;;;;;;;;0.00;0.00;;;;;11.96;74.39;100188.38;5066141;28;45293;-86
2021/10/31 03:41:02;;;;;;;;;0.00;0.00;;;;;11.54;74.30;100132.09;5069020;28;45512;-86
2021/10/31 03:43:27;;;;;;;;;0.00;0.00;;;;;11.11;74.45;100061.06;5088000;28;45354;-86
2021/10/31 03:45:59;;;;;;;;;0.00;0.00;;;;;11.74;74.89;100157.19;5086030;28;45485;-87
2021/10/31 03:48:24;;;;;;;;;0.00;0.00;;;;;11.55;74.77;100138.19;5086288;27;44765;-85
2021/10/31 03:50:50;;;;;;;;;0.00;0.00;;;;;11.70;74.92;100163.31;5092609;28;45639;-86
2021/10/31 03:53:15;;;;;;;;;1.25;0.00;;;;;11.57;74.80;100168.56;5068551;28;45330;-86
2021/10/31 03:55:40;;;;;;;;;0.75;0.00;;;;;11.44;75.27;100152.13;5084674;28;45286;-86
2021/10/31 03:58:06;;;;;;;;;0.50;0.50;;;;;11.57;75.56;100175.50;5083212;28;45310;-86
2021/10/31 04:00:31;;;;;;;;;0.00;0.00;;;;;11.39;75.54;100140.84;5084194;28;45309;-86
2021/10/31 04:02:57;;;;;;;;;1.50;0.00;;;;;11.51;75.75;100161.66;5085008;28;45591;-86
2021/10/31 04:05:22;;;;;;;;;0.25;0.25;;;;;11.46;76.02;100153.00;5084539;28;45561;-86
2021/10/31 04:07:47;;;;;;;;;0.00;0.00;;;;;11.43;75.65;100150.41;5083231;28;45354;-86
2021/10/31 04:10:13;;;;;;;;;0.00;0.00;;;;;11.04;75.73;100082.81;5085749;28;45303;-86
2021/10/31 04:12:39;;;;;;;;;0.00;0.00;;;;;11.18;75.75;100100.97;5068614;28;45583;-86
2021/10/31 04:15:05;;;;;;;;;0.00;0.00;;;;;11.33;75.75;100126.09;5085324;28;45336;-87
2021/10/31 04:17:32;;;;;;;;;0.00;0.00;;;;;11.22;75.93;100107.94;5066509;28;45339;-86
2021/10/31 04:19:57;;;;;;;;;1.00;1.00;;;;;11.48;75.99;100151.22;5084230;28;45292;-86
2021/10/31 04:22:23;;;;;;;;;0.25;0.25;;;;;11.08;75.89;100068.03;5084271;28;45226;-86
2021/10/31 04:24:53;;;;;;;;;0.25;0.00;;;;;11.08;76.36;100073.22;5083630;28;47227;-86
2021/10/31 04:27:19;;;;;;;;;1.00;0.00;;;;;11.47;76.44;100143.41;5082688;28;45338;-86
2021/10/31 04:29:45;;;;;;;;;1.50;1.00;;;;;11.24;76.44;100108.78;5088366;28;45241;-86
2021/10/31 04:32:11;;;;;;;;;1.75;0.00;;;;;11.40;76.57;100138.22;5089096;28;45572;-86
2021/10/31 04:34:57;;;;;;;;;0.25;0.00;;;;;11.45;76.78;100126.94;5066912;28;47406;-86
2021/10/31 04:37:24;;;;;;;;;0.00;0.00;;;;;11.04;76.70;100067.19;5082758;28;45869;-86
2021/10/31 04:39:49;;;;;;;;;1.25;0.00;;;;;11.42;76.73;100119.13;5083703;28;45425;-86
2021/10/31 04:42:15;;;;;;;;;0.00;0.00;;;;;11.43;77.15;100128.69;5065729;28;45307;-86
2021/10/31 04:44:41;;;;;;;;;0.25;0.00;;;;;10.98;76.92;100057.66;5083151;28;46140;-86
2021/10/31 04:47:09;;;;;;;;;0.00;0.00;;;;;10.84;77.32;100034.25;5083510;28;45432;-86
2021/10/31 04:49:35;;;;;;;;;2.50;0.50;;;;;11.02;77.27;100072.41;5083656;28;45286;-85
2021/10/31 04:52:01;;;;;;;;;0.00;0.00;;;;;11.34;77.28;100114.81;5065370;28;45281;-86
2021/10/31 04:54:27;;;;;;;;;0.50;0.50;;;;;11.36;77.38;100110.47;5084921;28;45361;-86
2021/10/31 04:56:54;;;;;;;;;0.00;0.00;;;;;11.42;77.56;100112.16;5084367;28;45308;-85
2021/10/31 04:59:19;;;;;;;;;0.00;0.00;;;;;11.45;77.75;100111.31;5084379;28;45327;-85
2021/10/31 05:01:45;;;;;;;;;1.00;0.25;;;;;11.39;77.84;100097.41;5082859;28;45509;-86
2021/10/31 05:04:11;;;;;;;;;0.00;0.00;;;;;11.44;77.68;100097.41;5082533;28;46985;-86
2021/10/31 05:06:37;;;;;;;;;0.00;0.00;;;;;11.43;77.71;100084.38;5082719;28;45776;-85
2021/10/31 05:09:04;;;;;;;;;0.75;0.00;;;;;11.48;78.11;100086.06;5084946;28;45326;-85
2021/10/31 05:11:29;;;;;;;;;0.50;0.50;;;;;11.30;77.84;100045.34;5085338;28;45278;-85
2021/10/31 05:13:55;;;;;;;;;0.00;0.00;;;;;11.49;77.82;100074.75;5083115;28;45237;-86
2021/10/31 05:16:20;;;;;;;;;0.00;0.00;;;;;11.38;77.62;100055.72;5084103;28;45291;-86
2021/10/31 05:18:48;;;;;;;;;0.00;0.00;;;;;11.52;77.81;100064.31;5083683;28;45426;-86
2021/10/31 05:21:14;;;;;;;;;0.00;0.00;;;;;11.50;78.00;100047.84;5084375;28;45212;-85
2021/10/31 05:23:39;;;;;;;;;0.00;0.00;;;;;11.24;77.95;100001.09;5082544;28;45574;-86
2021/10/31 05:26:13;;;;;;;;;0.00;0.00;;;;;11.21;78.09;99996.75;5083106;28;45327;-85
2021/10/31 05:28:42;;;;;;;;;0.00;0.00;;;;;10.85;77.91;99913.63;5082554;28;45307;-86
2021/10/31 05:31:08;;;;;;;;;0.00;0.00;;;;;10.84;77.75;99901.47;5083181;28;45528;-86
2021/10/31 05:33:33;;;;;;;;;0.00;0.00;;;;;11.43;77.79;99999.25;5081060;28;47535;-86
2021/10/31 05:35:58;;;;;;;;;0.00;0.00;;;;;11.64;78.14;100023.44;5083171;28;45272;-86
2021/10/31 05:38:24;;;;;;;;;0.00;0.00;;;;;11.49;78.13;100003.53;5085702;28;45723;-86
2021/10/31 05:40:50;;;;;;;;;0.25;0.00;;;;;11.68;78.34;100032.06;5069615;28;45276;-85
2021/10/31 05:43:17;;;;;;;;;0.75;0.75;;;;;11.61;78.28;100008.66;5069070;28;47564;-86
2021/10/31 05:45:43;;;;;;;;;0.00;0.00;;;;;11.67;78.33;100020.78;5086028;28;45275;-86
2021/10/31 05:48:10;;;;;;;;;0.00;0.00;;;;;11.39;78.46;99964.50;5085054;28;45271;-85
2021/10/31 05:50:36;;;;;;;;;0.00;0.00;;;;;11.58;78.33;100000.00;5068943;28;45343;-85
2021/10/31 05:53:02;;;;;;;;;0.00;0.00;;;;;11.52;78.26;99986.13;5087044;28;46157;-85
2021/10/31 05:55:28;;;;;;;;;0.00;0.00;;;;;11.54;78.19;99980.91;5086208;28;45404;-86
2021/10/31 05:57:53;;;;;;;;;0.75;0.50;;;;;11.46;78.04;99967.94;5086370;28;45322;-86
2021/10/31 06:00:18;;;;;;;;;0.00;0.00;;;;;11.66;78.24;99988.66;5066922;28;45587;-85
2021/10/31 06:02:45;;;;;;;;;0.75;0.75;;;;;11.80;78.22;100003.31;5068242;28;46162;-86
2021/10/31 06:05:12;;;;;;;;;0.00;0.00;;;;;11.45;78.13;99934.09;5070425;28;45307;-85
2021/10/31 06:07:39;;;;;;;;;0.00;0.00;;;;;11.68;78.22;99959.94;5098107;27;45185;-84
2021/10/31 06:10:07;;;;;;;;;0.00;0.00;;;;;11.68;78.33;99966.91;5102207;28;44816;-85
2021/10/31 06:12:33;;;;;;;;;0.00;0.00;;;;;11.80;78.46;99974.63;5096511;28;45171;-86
2021/10/31 06:14:58;;;;;;;;;0.00;0.00;;;;;11.81;78.37;99965.91;5070004;28;45534;-86
2021/10/31 06:17:24;;;;;;;;;0.00;0.00;;;;;11.83;78.24;99974.59;5084614;28;45514;-85
2021/10/31 06:19:52;;;;;;;;;0.00;0.00;;;;;11.74;78.07;99967.72;5085925;28;45195;-85
2021/10/31 06:22:18;;;;;;;;;0.00;0.00;;;;;11.51;78.39;99927.06;5087473;28;45320;-87
2021/10/31 06:24:43;;;;;;;;;0.00;0.00;;;;;11.75;78.75;99960.75;5087748;28;45279;-85
2021/10/31 06:27:08;;;;;;;;;0.00;0.00;;;;;11.72;78.22;99947.75;5069707;28;45336;-86
2021/10/31 06:29:34;;;;;;;;;0.00;0.00;;;;;11.83;77.95;99966.78;5087202;28;45351;-87
2021/10/31 06:31:59;;;;;;;;;0.00;0.00;;;;;11.55;78.13;99917.50;5066428;28;47284;-87
2021/10/31 06:34:25;;;;;;;;;0.00;0.00;;;;;11.77;78.22;99946.81;5084991;28;45403;-86
2021/10/31 06:36:50;;;;;;;;;0.00;0.00;;;;;11.78;78.04;99939.88;5085218;28;45817;-86
2021/10/31 06:39:16;;;;;;;;;0.00;0.00;;;;;11.74;78.15;99920.78;5085204;28;45359;-87
2021/10/31 06:41:41;;;;;;;;;0.00;0.00;;;;;11.70;78.13;99906.03;5078674;28;47994;-86
2021/10/31 06:44:07;;;;;;;;;0.00;0.00;;;;;11.95;78.41;99937.13;5091233;28;44844;-86
2021/10/31 06:46:35;;;;;;;;;1.00;0.00;;;;;11.85;78.27;99919.84;5099531;28;44837;-85
2021/10/31 06:49:04;;;;;;;;;0.00;0.00;;;;;11.17;78.63;99809.22;5079299;28;45625;-86
2021/10/31 06:51:30;;;;;;;;;0.00;0.00;;;;;11.27;78.42;99822.16;5085655;28;46258;-86
2021/10/31 06:53:55;;;;;;;;;0.00;0.00;;;;;11.97;78.36;99929.28;5083439;28;45420;-86
2021/10/31 06:56:21;;;;;;;;;0.00;0.00;;;;;11.34;78.11;99841.22;5067155;28;45423;-85
2021/10/31 06:58:47;;;;;;;;;0.25;0.00;;;;;11.85;78.45;99906.78;5084199;28;45487;-82
2021/10/31 07:01:12;;;;;;;;;0.00;0.00;;;;;11.36;78.82;99831.63;5077569;28;46313;-84
2021/10/31 07:03:37;;;;;;;;;1.50;0.00;;;;;11.89;78.83;99906.72;5072566;28;45308;-86
2021/10/31 07:06:04;;;;;;;;;0.00;0.00;;;;;11.61;79.05;99851.41;5086620;28;45271;-86
2021/10/31 07:08:30;;;;;;;;;0.00;0.00;;;;;11.90;78.78;99889.34;5086390;28;45598;-84
2021/10/31 07:10:55;;;;;;;;;0.00;0.00;;;;;11.76;79.30;99866.03;5084710;28;45223;-86
2021/10/31 07:13:20;;;;;;;;;0.00;0.00;;;;;11.64;79.32;99857.44;5085056;28;45234;-86
2021/10/31 07:15:46;;;;;;;;;0.00;0.00;;;;;11.78;79.11;99872.06;5083953;28;45637;-85
2021/10/31 07:18:12;;;;;;;;;0.00;0.00;;;;;11.86;79.32;99895.47;5085314;28;45271;-84
2021/10/31 07:20:43;;;;;;;;;0.50;0.50;;;;;11.80;79.12;99880.75;5084079;28;45384;-83
2021/10/31 07:23:08;;;;;;;;;0.00;0.00;;;;;11.60;79.78;99840.09;5084337;28;45444;-83
2021/10/31 07:25:34;;;;;;;;;0.00;0.00;;;;;11.84;79.41;99871.13;5085817;28;45468;-82
2021/10/31 07:27:59;;;;;;;;;1.25;0.00;;;;;11.61;79.08;99836.59;5065359;28;45561;-83
2021/10/31 07:30:25;;;;;;;;;0.00;0.00;;;;;11.87;79.42;99874.59;5083682;28;45495;-83
2021/10/31 07:32:57;;;;;;;;;0.00;0.00;;;;;12.09;79.26;99890.03;5083564;28;45291;-83
2021/10/31 07:35:23;;;;;;;;;0.00;0.00;;;;;11.83;78.79;99845.94;5084919;28;45345;-82
2021/10/31 07:37:49;;;;;;;;;0.00;0.00;;;;;11.91;78.94;99831.94;5081315;28;45518;-82
2021/10/31 07:40:15;;;;;;;;;0.00;0.00;;;;;11.98;78.94;99830.13;5083378;28;46328;-81
2021/10/31 07:42:40;;;;;;;;;0.00;0.00;;;;;12.22;78.82;99866.41;5083696;28;45255;-82
2021/10/31 07:45:06;;;;;;;;;0.00;0.00;;;;;12.32;78.62;99867.16;5085739;28;45222;-80
2021/10/31 07:47:35;;;;;;;;;0.00;0.00;;;;;12.23;78.56;99845.53;5086545;28;45227;-83
2021/10/31 07:50:00;;;;;;;;;0.00;0.00;;;;;12.16;78.46;99826.47;5064228;28;46580;-82
2021/10/31 07:52:26;;;;;;;;;0.00;0.00;;;;;12.33;78.16;99848.00;5056312;28;45330;-84
2021/10/31 07:55:02;;;;;;;;;0.00;0.00;;;;;12.47;78.11;99868.72;5082479;28;45548;-84
2021/10/31 07:57:35;;;;;;;;;0.00;0.00;;;;;11.85;78.17;99748.56;5046232;28;46533;-81
2021/10/31 08:00:01;;;;;;;;;0.00;0.00;;;;;12.48;78.20;99853.03;5081352;27;45423;-83
2021/10/31 08:02:26;;;;;;;;;0.00;0.00;;;;;12.01;78.08;99777.06;5060192;28;45519;-82
2021/10/31 08:04:55;;;;;;;;;0.00;0.00;;;;;12.33;77.91;99814.94;5077422;28;45439;-82
2021/10/31 08:07:27;;;;;;;;;0.00;0.00;;;;;12.42;78.08;99824.41;5075857;27;45255;-84
2021/10/31 08:09:59;;;;;;;;;0.00;0.00;;;;;11.72;77.57;99703.53;5080775;27;46178;-83
2021/10/31 08:12:28;;;;;;;;;0.00;0.00;;;;;12.52;77.81;99835.56;5081228;28;45510;-81
2021/10/31 08:15:00;;;;;;;;;0.00;0.00;;;;;11.74;78.03;99696.56;5075862;28;45348;-84
2021/10/31 08:17:26;;;;;;;;;0.00;0.00;;;;;12.38;77.88;99802.69;5067455;28;45870;-82
2021/10/31 08:19:51;;;;;;;;;0.00;0.00;;;;;11.80;77.96;99713.88;5078282;27;45529;-83
2021/10/31 08:22:20;;;;;;;;;0.00;0.00;;;;;11.94;77.92;99721.50;5062372;28;45498;-83
2021/10/31 08:24:46;;;;;;;;;0.00;0.00;;;;;11.97;77.78;99716.25;5082481;28;45558;-84
2021/10/31 08:27:11;;;;;;;;;0.00;0.00;;;;;12.65;77.78;99816.22;5080624;28;45564;-80
2021/10/31 08:29:37;;;;;;;;;0.00;0.00;;;;;12.51;77.34;99784.25;5063665;28;46898;-80
2021/10/31 08:32:03;;;;;;;;;0.00;0.00;;;;;12.62;77.39;99802.38;5080973;27;45197;-82
2021/10/31 08:34:28;;;;;;;;;0.00;0.00;;;;;12.15;77.24;99730.81;5086499;28;45577;-80
2021/10/31 08:36:54;;;;;;;;;0.00;0.00;;;;;12.36;77.22;99736.63;5063179;28;45216;-84
2021/10/31 08:39:19;;;;;;;;;0.00;0.00;;;;;12.79;77.01;99794.28;5082659;28;45807;-81
2021/10/31 08:41:46;;;;;;;;;0.00;0.00;;;;;12.64;77.14;99772.75;5083122;28;45470;-79
2021/10/31 08:44:12;;;;;;;;;0.00;0.00;;;;;12.70;76.93;99773.50;5082292;28;45469;-79
2021/10/31 08:46:43;;;;;;;;;0.00;0.00;;;;;12.62;77.20;99750.16;5081684;28;45512;-78
2021/10/31 08:49:11;;;;;;;;;1.00;0.00;;;;;12.77;76.81;99764.72;5062878;28;48330;-78
2021/10/31 08:51:37;;;;;;;;;0.00;0.00;;;;;12.68;76.50;99744.81;5063112;28;46308;-80
2021/10/31 08:54:04;;;;;;;;;0.00;0.00;;;;;12.81;76.38;99755.94;5080930;28;45355;-81
2021/10/31 08:56:33;;;;;;;;;0.00;0.00;;;;;12.88;76.56;99773.25;5081188;28;45545;-81
2021/10/31 08:59:00;;;;;;;;;0.00;0.00;;;;;12.67;76.64;99723.09;5081274;28;45355;-81
2021/10/31 09:01:31;;;;;;;;;0.00;0.00;;;;;12.56;75.99;99693.69;5081064;28;45418;-81
2021/10/31 09:03:57;;;;;;;;;0.00;0.00;;;;;12.09;75.98;99597.00;5081421;28;45450;-81
2021/10/31 09:06:49;;;;;;;;;0.00;0.00;;;;;12.77;76.26;99683.78;5063869;28;45598;-83
2021/10/31 09:09:14;;;;;;;;;0.00;0.00;;;;;12.08;75.89;99574.41;5081169;28;45677;-84
2021/10/31 09:11:40;;;;;;;;;0.00;0.00;;;;;12.85;75.84;99694.94;5082241;28;45313;-86
2021/10/31 09:14:05;;;;;;;;;0.00;0.00;;;;;12.84;76.02;99684.50;5082186;28;45403;-85
2021/10/31 09:16:32;;;;;;;;;0.00;0.00;;;;;13.20;75.97;99728.28;5082538;28;45304;-85
2021/10/31 09:18:58;;;;;;;;;0.00;0.00;;;;;12.94;75.73;99670.41;5082825;28;45656;-85
2021/10/31 09:21:28;;;;;;;;;0.00;0.00;;;;;13.09;75.80;99660.53;5082135;28;45218;-84
2021/10/31 09:23:57;;;;;;;;;0.00;0.00;;;;;13.45;75.45;99684.25;5082156;28;45486;-84
2021/10/31 09:26:58;;;;;;;;;0.00;0.00;;;;;13.36;75.22;99672.22;5064219;28;45395;-84
2021/10/31 09:29:38;;;;;;;;;0.25;0.25;;;;;13.25;75.08;99634.97;5059323;28;45434;-84
2021/10/31 09:32:04;;;;;;;;;0.00;0.00;;;;;13.78;74.90;99704.50;5045358;28;45377;-86
2021/10/31 09:34:30;;;;;;;;;0.00;0.00;;;;;13.50;74.65;99630.13;5044333;28;45455;-85
2021/10/31 09:37:01;;;;;;;;;0.00;0.00;;;;;13.13;74.15;99542.88;5043532;28;45546;-85
2021/10/31 09:39:59;;;;;;;;;0.75;0.00;;;;;13.29;73.88;99563.44;5043372;28;47006;-84
2021/10/31 09:42:21;;;;;;;;;0.00;0.00;;;;;13.80;73.93;99632.97;5060372;28;45429;-82
2021/10/31 09:44:50;;;;;;;;;0.00;0.00;;;;;13.47;73.77;99556.13;5042796;28;45303;-83
2021/10/31 09:47:24;;;;;;;;;0.00;0.00;;;;;13.99;73.54;99632.56;5060977;28;45454;-82
2021/10/31 09:49:50;;;;;;;;;0.00;0.00;;;;;13.96;73.27;99603.84;5060864;28;46200;-82
2021/10/31 09:52:27;;;;;;;;;0.00;0.00;;;;;13.38;73.13;99492.69;5061336;28;45443;-84
2021/10/31 09:55:03;;;;;;;;;1.00;1.00;;;;;13.79;73.13;99546.69;5060414;28;45428;-83
2021/10/31 09:57:29;;;;;;;;;0.00;0.00;;;;;13.72;72.93;99529.44;5042362;28;45593;-82
2021/10/31 09:59:56;;;;;;;;;0.00;0.00;;;;;13.99;72.91;99543.59;5059021;28;47624;-83
2021/10/31 10:05:17;;;;;;;;;0.00;0.00;;;;;14.09;72.50;99522.44;5061225;28;45433;-83
2021/10/31 10:07:42;;;;;;;;;0.00;0.00;;;;;14.20;72.20;99525.63;5064832;28;45538;-85
2021/10/31 10:10:16;;;;;;;;;0.00;0.00;;;;;13.99;71.67;99459.88;5046111;28;47329;-84
2021/10/31 10:12:42;;;;;;;;;0.00;0.00;;;;;14.79;71.46;99580.84;5042824;28;45365;-85
2021/10/31 10:15:21;;;;;;;;;0.00;0.00;;;;;14.87;71.15;99586.75;5038844;28;45653;-85
2021/10/31 10:17:51;;;;;;;;;0.00;0.00;;;;;14.72;70.97;99521.63;5061756;28;45410;-85
2021/10/31 10:20:19;;;;;;;;;0.00;0.00;;;;;14.59;70.60;99489.69;5059437;28;47131;-85
2021/10/31 10:23:06;;;;;;;;;0.00;0.00;;;;;14.23;70.36;99433.94;5060449;28;45528;-85
2021/10/31 10:25:42;;;;;;;;;0.00;0.00;;;;;15.14;70.48;99558.03;5044319;28;45525;-84
2021/10/31 10:28:25;;;;;;;;;0.00;0.00;;;;;15.31;70.03;99583.75;5056349;28;45434;-84
2021/10/31 10:30:52;;;;;;;;;0.00;0.00;;;;;14.67;70.26;99458.94;5065463;28;47185;-83
2021/10/31 10:33:21;;;;;;;;;0.00;0.00;;;;;15.00;70.15;99478.94;5083675;28;45461;-83
2021/10/31 10:35:55;;;;;;;;;0.00;0.00;;;;;14.68;69.97;99400.41;5066601;28;45309;-83
2021/10/31 10:38:21;;;;;;;;;0.00;0.00;;;;;15.64;70.12;99540.81;5084081;27;45637;-83
2021/10/31 10:40:47;;;;;;;;;0.00;0.00;;;;;15.51;69.69;99495.75;5084250;28;45301;-83
2021/10/31 10:43:18;;;;;;;;;1.00;0.00;;;;;15.83;69.80;99527.09;5083969;28;45286;-84
2021/10/31 10:45:58;;;;;;;;;0.00;0.00;;;;;15.27;69.92;99414.34;5084721;27;45559;-84
2021/10/31 10:48:29;;;;;;;;;0.00;0.00;;;;;15.68;69.50;99489.97;5065474;28;46073;-84
2021/10/31 10:50:55;;;;;;;;;0.00;0.00;;;;;15.60;69.77;99464.88;5072196;28;45751;-83
2021/10/31 10:53:35;;;;;;;;;0.75;0.00;;;;;15.89;69.31;99498.03;5093654;28;44674;-83
2021/10/31 10:56:10;;;;;;;;;0.00;0.00;;;;;16.15;70.06;99543.59;5079332;28;45610;-86
2021/10/31 10:58:42;;;;;;;;;0.00;0.00;;;;;16.06;69.97;99534.25;5087183;28;45338;-82
2021/10/31 11:01:18;;;;;;;;;0.00;0.00;;;;;15.57;70.16;99432.63;5071541;28;47051;-87
2021/10/31 11:03:43;;;;;;;;;0.00;0.00;;;;;15.34;70.22;99407.13;5086475;28;45465;-85
2021/10/31 11:06:11;;;;;;;;;0.00;0.00;;;;;15.63;69.82;99449.06;5086186;28;45461;-85
2021/10/31 11:08:37;;;;;;;;;0.00;0.00;;;;;16.17;70.10;99536.50;5081627;28;45465;-87
2021/10/31 11:11:12;;;;;;;;;0.00;0.00;;;;;16.37;70.23;99540.22;5090986;28;48380;-84
2021/10/31 11:13:55;;;;;;;;;0.00;0.00;;;;;16.52;70.11;99544.09;5095766;28;45539;-84
2021/10/31 11:16:21;;;;;;;;;0.00;0.00;;;;;16.50;70.41;99517.00;5068186;28;45477;-85
2021/10/31 11:18:47;;;;;;;;;0.00;0.00;;;;;16.37;69.57;99485.06;5085611;28;45467;-86
2021/10/31 11:21:12;;;;;;;;;0.00;0.00;;;;;16.74;70.13;99514.41;5081035;28;46280;-86
2021/10/31 11:23:38;;;;;;;;;0.00;0.00;;;;;16.49;69.84;99477.66;5084254;28;45320;-85
2021/10/31 11:26:08;;;;;;;;;0.00;0.00;;;;;16.48;69.81;99482.06;5088251;27;45403;-88
2021/10/31 11:28:34;;;;;;;;;0.00;0.00;;;;;16.46;69.86;99483.88;5074903;28;45635;-84
2021/10/31 11:31:02;;;;;;;;;0.00;0.00;;;;;16.58;69.78;99499.22;5062235;28;46877;-84
2021/10/31 11:33:27;;;;;;;;;0.00;0.00;;;;;16.62;70.32;99499.94;5081648;28;45421;-86
2021/10/31 11:35:55;;;;;;;;;0.00;0.00;;;;;16.31;70.46;99451.16;5064498;28;45464;-85
2021/10/31 11:38:23;;;;;;;;;0.00;0.00;;;;;16.16;70.56;99435.03;5068379;28;45630;-85
2021/10/31 11:41:10;;;;;;;;;0.00;0.00;;;;;16.05;70.57;99416.19;5084393;28;45617;-83
2021/10/31 11:43:57;;;;;;;;;0.00;0.00;;;;;16.05;70.70;99411.78;5077933;27;45451;-86